Time,TemperatureF,DewpointF,PressureIn,WindDirection,WindDirectionDegrees,WindSpeedMPH,WindSpeedGustMPH,Humidity,HourlyPrecipIn,Conditions,Clouds,dailyrainin,SolarRadiationWatts/m^2,SoftwareType,DateUTC
2013-02-13 00:00:00,18.0,14.0,-100.00,SSW,202,2.0,-999.0,82,-99.99,,,-99.99,0.000000,,2013-02-13 05:00:00,
2013-02-13 00:42:00,18.0,14.0,-100.00,SSW,202,2.0,-999.0,82,-99.99,,,-99.99,0.000000,,2013-02-13 05:42:00,
2013-02-13 00:52:00,18.0,14.0,-100.00,SSW,202,2.0,-999.0,82,-99.99,,,-99.99,0.000000,,2013-02-13 05:52:00,
2013-02-13 02:00:00,15.0,12.0,-100.00,WSW,247,1.0,-999.0,89,-99.99,,,-99.99,0.000000,,2013-02-13 07:00:00,
2013-02-13 02:42:00,15.0,12.0,-100.00,WSW,247,1.0,-999.0,89,-99.99,,,-99.99,0.000000,,2013-02-13 07:42:00,
2013-02-13 02:52:00,15.0,12.0,-100.00,WSW,247,1.0,-999.0,89,-99.99,,,-99.99,0.000000,,2013-02-13 07:52:00,
2013-02-13 03:00:00,12.0,10.0,-100.00,SW,225,1.0,-999.0,92,-99.99,,,-99.99,0.000000,,2013-02-13 08:00:00,
2013-02-13 03:43:00,12.0,10.0,-100.00,SW,225,1.0,-999.0,92,-99.99,,,-99.99,0.000000,,2013-02-13 08:43:00,
2013-02-13 03:52:00,12.0,10.0,-100.00,SW,225,1.0,-999.0,92,-99.99,,,-99.99,0.000000,,2013-02-13 08:52:00,
2013-02-13 04:00:00,12.0,11.0,-100.00,SSW,202,1.0,-999.0,92,-99.99,,,-99.99,0.000000,,2013-02-13 09:00:00,
2013-02-13 04:42:00,12.0,11.0,-100.00,SSW,202,1.0,-999.0,92,-99.99,,,-99.99,0.000000,,2013-02-13 09:42:00,
2013-02-13 04:52:00,12.0,11.0,-100.00,SSW,202,1.0,-999.0,92,-99.99,,,-99.99,0.000000,,2013-02-13 09:52:00,
2013-02-13 05:00:00,16.0,14.0,-100.00,SSW,202,3.0,-999.0,91,-99.99,,,-99.99,0.000000,,2013-02-13 10:00:00,
2013-02-13 05:42:00,16.0,14.0,-100.00,SSW,202,3.0,-999.0,91,-99.99,,,-99.99,0.000000,,2013-02-13 10:42:00,
2013-02-13 05:52:00,16.0,14.0,-100.00,SSW,202,3.0,-999.0,91,-99.99,,,-99.99,0.000000,,2013-02-13 10:52:00,
2013-02-13 08:00:00,19.0,16.0,-100.00,SSW,202,4.0,-999.0,91,-99.99,,,-99.99,1.160000,,2013-02-13 13:00:00,
2013-02-13 08:42:00,19.0,16.0,-100.00,SSW,202,4.0,-999.0,91,-99.99,,,-99.99,1.160000,,2013-02-13 13:42:00,
2013-02-13 08:52:00,19.0,16.0,-100.00,SSW,202,4.0,-999.0,91,-99.99,,,-99.99,1.160000,,2013-02-13 13:52:00,
2013-02-13 09:00:00,19.0,17.0,-100.00,SSW,202,4.0,-999.0,91,-99.99,,,-99.99,26.680000,,2013-02-13 14:00:00,
2013-02-13 09:42:00,19.0,17.0,-100.00,SSW,202,4.0,-999.0,91,-99.99,,,-99.99,26.680000,,2013-02-13 14:42:00,
2013-02-13 09:52:00,19.0,17.0,-100.00,SSW,202,4.0,-999.0,91,-99.99,,,-99.99,26.680000,,2013-02-13 14:52:00,
2013-02-13 10:00:00,20.0,18.0,-100.00,SW,225,3.0,-999.0,89,-99.99,,,-99.99,113.680000,,2013-02-13 15:00:00,
2013-02-13 10:42:00,20.0,18.0,-100.00,SW,225,3.0,-999.0,89,-99.99,,,-99.99,113.680000,,2013-02-13 15:42:00,
2013-02-13 10:52:00,20.0,18.0,-100.00,SW,225,3.0,-999.0,89,-99.99,,,-99.99,113.680000,,2013-02-13 15:52:00,
2013-02-13 11:00:00,23.0,19.0,-100.00,SW,225,3.0,-999.0,83,-99.99,,,-99.99,251.720001,,2013-02-13 16:00:00,
2013-02-13 11:42:00,23.0,19.0,-100.00,SW,225,3.0,-999.0,83,-99.99,,,-99.99,251.720001,,2013-02-13 16:42:00,
2013-02-13 11:52:00,23.0,19.0,-100.00,SW,225,3.0,-999.0,83,-99.99,,,-99.99,251.720001,,2013-02-13 16:52:00,
2013-02-13 12:00:00,28.0,20.0,-100.00,WSW,247,2.0,-999.0,72,-99.99,,,-99.99,378.160004,,2013-02-13 17:00:00,
2013-02-13 12:42:00,28.0,20.0,-100.00,WSW,247,2.0,-999.0,72,-99.99,,,-99.99,378.160004,,2013-02-13 17:42:00,
2013-02-13 12:52:00,28.0,20.0,-100.00,WSW,247,2.0,-999.0,72,-99.99,,,-99.99,378.160004,,2013-02-13 17:52:00,
2013-02-13 13:00:00,31.0,21.0,-100.00,SW,225,3.0,-999.0,65,-99.99,,,-99.99,351.480011,,2013-02-13 18:00:00,
2013-02-13 13:42:00,31.0,21.0,-100.00,SW,225,3.0,-999.0,65,-99.99,,,-99.99,351.480011,,2013-02-13 18:42:00,
2013-02-13 13:52:00,31.0,21.0,-100.00,SW,225,3.0,-999.0,65,-99.99,,,-99.99,351.480011,,2013-02-13 18:52:00,
2013-02-13 14:00:00,34.0,22.0,-100.00,SSW,202,4.0,-999.0,61,-99.99,,,-99.99,361.920013,,2013-02-13 19:00:00,
2013-02-13 14:42:00,34.0,22.0,-100.00,SSW,202,4.0,-999.0,61,-99.99,,,-99.99,361.920013,,2013-02-13 19:42:00,
2013-02-13 14:52:00,34.0,22.0,-100.00,SSW,202,4.0,-999.0,61,-99.99,,,-99.99,361.920013,,2013-02-13 19:52:00,
2013-02-13 15:00:00,35.0,23.0,-100.00,South,180,4.0,-999.0,62,-99.99,,,-99.99,265.640015,,2013-02-13 20:00:00,
2013-02-13 15:42:00,35.0,23.0,-100.00,South,180,4.0,-999.0,62,-99.99,,,-99.99,265.640015,,2013-02-13 20:42:00,
2013-02-13 15:52:00,35.0,23.0,-100.00,South,180,4.0,-999.0,62,-99.99,,,-99.99,265.640015,,2013-02-13 20:52:00,
2013-02-13 17:00:00,35.0,25.0,-100.00,SSE,157,5.0,-999.0,65,-99.99,,,-99.99,140.360001,,2013-02-13 22:00:00,
2013-02-13 17:42:00,35.0,25.0,-100.00,SSE,157,5.0,-999.0,65,-99.99,,,-99.99,140.360001,,2013-02-13 22:42:00,
2013-02-13 17:52:00,35.0,25.0,-100.00,SSE,157,5.0,-999.0,65,-99.99,,,-99.99,140.360001,,2013-02-13 22:52:00,
2013-02-13 18:00:00,32.0,26.0,-100.00,SSE,157,5.0,-999.0,78,-99.99,,,-99.99,44.080002,,2013-02-13 23:00:00,
2013-02-13 18:42:00,32.0,26.0,-100.00,SSE,157,5.0,-999.0,78,-99.99,,,-99.99,44.080002,,2013-02-13 23:42:00,
2013-02-13 18:52:00,32.0,26.0,-100.00,SSE,157,5.0,-999.0,78,-99.99,,,-99.99,44.080002,,2013-02-13 23:52:00,
2013-02-13 19:00:00,30.0,26.0,-100.00,South,180,4.0,-999.0,86,-99.99,,,-99.99,1.160000,,2013-02-14 00:00:00,
2013-02-13 19:42:00,30.0,26.0,-100.00,South,180,4.0,-999.0,86,-99.99,,,-99.99,1.160000,,2013-02-14 00:42:00,
2013-02-13 19:52:00,30.0,26.0,-100.00,South,180,4.0,-999.0,86,-99.99,,,-99.99,1.160000,,2013-02-14 00:52:00,
2013-02-13 21:00:00,27.0,25.0,-100.00,SSE,157,0.0,-999.0,91,-99.99,,,-99.99,0.000000,,2013-02-14 02:00:00,
2013-02-13 22:00:00,25.0,23.0,-100.00,SW,225,0.0,-999.0,93,-99.99,,,-99.99,0.000000,,2013-02-14 03:00:00,
2013-02-13 22:42:00,25.0,23.0,-100.00,SW,225,0.0,-999.0,93,-99.99,,,-99.99,0.000000,,2013-02-14 03:42:00,
2013-02-13 22:52:00,25.0,23.0,-100.00,SW,225,0.0,-999.0,93,-99.99,,,-99.99,0.000000,,2013-02-14 03:52:00,